La Plata, NM (87418)

7:43 AM MDT on August 30, 2016 (GMT -0600)
8 miles North of Farmington, NM | | Change Station

Elev 5663 ft 36.87 °N, 108.20 °W | Updated 13 minutes ago

Scattered Clouds
Scattered Clouds
58.0 °F
Feels Like 58.0 °F
N
0.0
Wind Variable Wind from North
Gusts 3.0 mph

Today
High -- | Low -- °F
--% Chance of Precip.
Yesterday
High -- | Low -- °F
Precip. -- in
Pressure 30.16 in
Visibility 10.0 miles
Clouds Scattered Clouds 10000 ft
Dew Point 47 °F
Humidity 67%
Rainfall 0.00 in
Snow Depth Not available.
6:42 AM 7:43 PM
Waning Crescent, 3% visible
METAR KFMN 301253Z 09005KT 10SM SCT100 15/08 A3030 RMK AO2 SLP211 T01500083
Pressure 30.16 in
Visibility 10.0 miles
Clouds Scattered Clouds 10000 ft
Dew Point 47 °F
Humidity 67%
Rainfall 0.00 in
Snow Depth Not available.
6:42 AM 7:43 PM
Waning Crescent, 3% visible
METAR KFMN 301253Z 09005KT 10SM SCT100 15/08 A3030 RMK AO2 SLP211 T01500083

10-Day Weather Forecast

Almanac

Astronomy

Aug. 30, 2016 Rise Set
Actual Time
Civil Twilight
Nautical Twilight
Astronomical Twilight
Moon
Length of Visible Light
Length of Day
Tomorrow will be .
, % of the Moon is Illuminated

Today's Extremes

State Highs State Lows

Community

WunderPhotos

Upload Photos

1,935,833 photos uploaded!

WunderBlog® & News

Nearby

Air Quality

  Air Quality AQ Index Pollutant
Not available.

Snow Depth

Station Depth Elevation

Earthquake Activity

City Distance Mag. Time & Date
Minimum magnitude displayed is 2.5.

Coastal Water Temperatures

Place Temperature

Stations

Nearby Weather Stations

Station Location Temp. Windchill Dew Point Humidity Wind Precip. Elev Updated Type
                   

Watches & Warnings

There are currently no watches in effect.